Time;durP1;ratioP1;P1;durP2;ratioP2;P2;SDS_P1;SDS_P2;PMS_P1;PMS_P2;Temp;Humidity;BMP_temperature;BMP_pressure;BME280_temperature;BME280_humidity;BME280_pressure;Samples;Min_cycle;Max_cycle;Signal;HPM_P1;HPM_P2
2022/03/12 00:01:40;;;;;;;;;;;76.90;819.20;;;;;;5035829;28;19924;-55
2022/03/12 00:04:06;;;;;;;;;;;76.90;819.20;;;;;;5036020;28;19951;-56
2022/03/12 00:06:32;;;;;;;;;;;76.90;844.80;;;;;;5035515;28;20413;-57
2022/03/12 00:08:58;;;;;;;;;;;76.90;819.20;;;;;;5036341;28;19925;-59
2022/03/12 00:11:25;;;;;;;;;;;76.80;844.80;;;;;;5036012;28;19909;-57
2022/03/12 00:13:51;;;;;;;;;;;76.80;844.80;;;;;;5035308;28;19916;-58
2022/03/12 00:16:25;;;;;;;;;;;76.80;844.80;;;;;;5035645;28;19944;-59
2022/03/12 00:18:52;;;;;;;;;;;52.10;819.20;;;;;;5033365;28;20004;-59
2022/03/12 00:21:18;;;;;;;;;;;52.10;844.80;;;;;;5035774;28;19924;-59
2022/03/12 00:23:49;;;;;;;;;;;52.10;844.80;;;;;;5035860;28;20258;-56
2022/03/12 00:26:15;;;;;;;;;;;52.10;819.20;;;;;;5034108;28;20407;-55
2022/03/12 00:28:42;;;;;;;;;;;52.00;844.80;;;;;;5035573;28;19913;-57
2022/03/12 00:31:09;;;;;;;;;;;51.90;844.80;;;;;;5035704;28;19920;-57
2022/03/12 00:33:34;;;;;;;;;;;51.90;844.80;;;;;;5033082;28;20274;-55
2022/03/12 00:36:01;;;;;;;;;;;51.90;844.80;;;;;;5035733;28;19909;-56
2022/03/12 00:38:27;;;;;;;;;;;51.90;844.80;;;;;;5035556;28;20347;-55
2022/03/12 00:40:52;;;;;;;;;;;51.90;844.80;;;;;;5035350;28;19917;-57
2022/03/12 00:43:18;;;;;;;;;;;51.90;844.80;;;;;;5034565;28;19959;-57
2022/03/12 00:45:44;;;;;;;;;;;51.80;844.80;;;;;;5035557;28;19914;-57
2022/03/12 00:48:10;;;;;;;;;;;51.80;844.80;;;;;;5035402;28;20325;-57
2022/03/12 00:50:36;;;;;;;;;;;51.80;844.80;;;;;;5034632;28;19917;-56
2022/03/12 00:53:01;;;;;;;;;;;51.80;844.80;;;;;;5034776;28;20092;-57
2022/03/12 00:55:27;;;;;;;;;;;51.70;870.40;;;;;;5034447;28;19948;-56
2022/03/12 00:57:53;;;;;;;;;;;51.70;870.40;;;;;;5030201;28;20000;-58
2022/03/12 01:00:20;;;;;;;;;;;51.70;844.80;;;;;;5033582;28;20016;-56
2022/03/12 01:02:46;;;;;;;;;;;51.70;844.80;;;;;;5034337;28;19921;-58
2022/03/12 01:05:13;;;;;;;;;;;51.70;870.40;;;;;;5034912;28;19913;-59
2022/03/12 01:07:39;;;;;;;;;;;51.60;870.40;;;;;;5035276;28;20363;-57
2022/03/12 01:10:04;;;;;;;;;;;51.60;870.40;;;;;;5035635;28;19928;-61
2022/03/12 01:12:30;;;;;;;;;;;51.50;870.40;;;;;;5035278;28;19909;-58
2022/03/12 01:14:56;;;;;;;;;;;51.40;870.40;;;;;;5035360;28;19910;-59
2022/03/12 01:17:22;;;;;;;;;;;52.00;1177.60;;;;;;5035655;28;20370;-58
2022/03/12 01:19:48;;;;;;;;;;;51.90;998.40;;;;;;5035100;28;19917;-58
2022/03/12 01:22:18;;;;;;;;;;;51.90;947.20;;;;;;5035312;28;20369;-61
2022/03/12 01:24:43;;;;;;;;;;;51.80;896.00;;;;;;5034905;28;20359;-61
2022/03/12 01:27:09;;;;;;;;;;;51.70;896.00;;;;;;5034779;28;20031;-61
2022/03/12 01:29:34;;;;;;;;;;;51.70;896.00;;;;;;5035218;28;19913;-59
2022/03/12 01:32:00;;;;;;;;;;;51.60;870.40;;;;;;5035160;28;19909;-60
2022/03/12 01:34:25;;;;;;;;;;;51.70;896.00;;;;;;5034938;28;19910;-60
2022/03/12 01:36:51;;;;;;;;;;;51.60;870.40;;;;;;5035040;28;19909;-59
2022/03/12 01:39:17;;;;;;;;;;;51.60;896.00;;;;;;5035057;28;19909;-56
2022/03/12 01:41:43;;;;;;;;;;;51.50;870.40;;;;;;5034805;28;20329;-57
2022/03/12 01:44:09;;;;;;;;;;;51.50;870.40;;;;;;5034727;28;19909;-60
2022/03/12 01:46:41;;;;;;;;;;;51.50;896.00;;;;;;5035172;28;19917;-57
2022/03/12 01:49:09;;;;;;;;;;;51.40;896.00;;;;;;5033515;28;19913;-60
2022/03/12 01:51:36;;;;;;;;;;;51.40;896.00;;;;;;5034838;28;19956;-57
2022/03/12 01:54:02;;;;;;;;;;;51.30;896.00;;;;;;5034998;28;20339;-57
2022/03/12 01:56:28;;;;;;;;;;;51.30;896.00;;;;;;5034982;28;20374;-57
2022/03/12 01:58:53;;;;;;;;;;;51.20;896.00;;;;;;5034708;28;19910;-56
2022/03/12 02:01:20;;;;;;;;;;;51.20;921.60;;;;;;5034638;28;19924;-59
2022/03/12 02:03:46;;;;;;;;;;;51.20;896.00;;;;;;5034378;28;19921;-60
2022/03/12 02:06:16;;;;;;;;;;;51.20;896.00;;;;;;5034545;28;19915;-60
2022/03/12 02:08:42;;;;;;;;;;;51.20;921.60;;;;;;5034736;28;19909;-60
2022/03/12 02:11:08;;;;;;;;;;;51.20;896.00;;;;;;5034448;28;19956;-61
2022/03/12 02:13:34;;;;;;;;;;;26.50;870.40;;;;;;5034265;28;20259;-56
2022/03/12 02:16:09;;;;;;;;;;;26.50;896.00;;;;;;5034374;28;19909;-59
2022/03/12 02:18:36;;;;;;;;;;;26.40;896.00;;;;;;5034050;28;19909;-60
2022/03/12 02:21:02;;;;;;;;;;;26.50;896.00;;;;;;5034311;28;19943;-60
2022/03/12 02:23:28;;;;;;;;;;;26.40;896.00;;;;;;5034244;28;19909;-59
2022/03/12 02:26:00;;;;;;;;;;;26.40;921.60;;;;;;5034305;28;20267;-60
2022/03/12 02:28:26;;;;;;;;;;;26.40;896.00;;;;;;5034374;28;20321;-60
2022/03/12 02:30:52;;;;;;;;;;;26.40;896.00;;;;;;5034219;28;19909;-60
2022/03/12 02:33:24;;;;;;;;;;;26.40;896.00;;;;;;5034240;28;19916;-59
2022/03/12 02:35:52;;;;;;;;;;;26.40;896.00;;;;;;5033505;28;19909;-60
2022/03/12 02:38:20;;;;;;;;;;;26.40;896.00;;;;;;5034103;28;19916;-60
2022/03/12 02:40:50;;;;;;;;;;;26.30;921.60;;;;;;5033764;28;19971;-59
2022/03/12 02:43:20;;;;;;;;;;;26.30;921.60;;;;;;5034021;28;19960;-59
2022/03/12 02:45:48;;;;;;;;;;;26.30;921.60;;;;;;5034297;28;19913;-59
2022/03/12 02:48:13;;;;;;;;;;;26.30;921.60;;;;;;5033930;28;19909;-58
2022/03/12 02:50:41;;;;;;;;;;;26.30;921.60;;;;;;5034050;28;19963;-59
2022/03/12 02:53:08;;;;;;;;;;;26.30;921.60;;;;;;5033981;28;19916;-60
2022/03/12 02:55:36;;;;;;;;;;;26.30;947.20;;;;;;5033997;28;19996;-60
2022/03/12 02:58:09;;;;;;;;;;;26.30;947.20;;;;;;5033946;28;19931;-58
2022/03/12 03:00:36;;;;;;;;;;;26.30;947.20;;;;;;5033932;28;19917;-56
2022/03/12 03:03:02;;;;;;;;;;;26.30;947.20;;;;;;5033333;28;19947;-56
2022/03/12 03:05:45;;;;;;;;;;;26.40;921.60;;;;;;5033620;28;19909;-58
2022/03/12 03:08:13;;;;;;;;;;;26.40;921.60;;;;;;5033990;28;19943;-56
2022/03/12 03:10:40;;;;;;;;;;;26.30;921.60;;;;;;5033839;28;19948;-56
2022/03/12 03:13:18;;;;;;;;;;;26.30;921.60;;;;;;5033815;28;19975;-56
2022/03/12 03:15:46;;;;;;;;;;;26.20;921.60;;;;;;5033850;28;19913;-60
2022/03/12 03:18:15;;;;;;;;;;;26.30;947.20;;;;;;5033724;28;19977;-56
2022/03/12 03:20:41;;;;;;;;;;;26.20;947.20;;;;;;5033618;28;19917;-56
2022/03/12 03:23:08;;;;;;;;;;;26.20;947.20;;;;;;5033863;28;19910;-56
2022/03/12 03:25:35;;;;;;;;;;;26.20;947.20;;;;;;5033728;28;19955;-60
2022/03/12 03:28:00;;;;;;;;;;;26.10;947.20;;;;;;5033704;28;19909;-56
2022/03/12 03:30:30;;;;;;;;;;;26.10;972.80;;;;;;5033770;28;19910;-58
2022/03/12 03:32:56;;;;;;;;;;;26.10;947.20;;;;;;5033558;28;19909;-57
2022/03/12 03:35:21;;;;;;;;;;;26.10;972.80;;;;;;5033782;28;19909;-60
2022/03/12 03:37:47;;;;;;;;;;;26.00;972.80;;;;;;5033642;28;19909;-59
2022/03/12 03:40:13;;;;;;;;;;;26.00;972.80;;;;;;5033703;28;19924;-56
2022/03/12 03:42:38;;;;;;;;;;;26.00;972.80;;;;;;5033724;28;19964;-56
2022/03/12 03:45:04;;;;;;;;;;;25.90;972.80;;;;;;5033517;28;19952;-56
2022/03/12 03:47:30;;;;;;;;;;;25.90;972.80;;;;;;5034286;28;19952;-56
2022/03/12 03:49:55;;;;;;;;;;;25.80;972.80;;;;;;5037119;28;19996;-58
2022/03/12 03:52:21;;;;;;;;;;;25.80;972.80;;;;;;5037163;28;19956;-60
2022/03/12 03:54:46;;;;;;;;;;;25.80;972.80;;;;;;5037156;28;19909;-59
2022/03/12 03:57:16;;;;;;;;;;;25.80;972.80;;;;;;5037007;28;19909;-60
2022/03/12 03:59:41;;;;;;;;;;;25.80;998.40;;;;;;5036920;28;20015;-57
2022/03/12 04:02:07;;;;;;;;;;;25.80;972.80;;;;;;5036560;28;20005;-57
2022/03/12 04:04:35;;;;;;;;;;;25.70;998.40;;;;;;5036818;28;19944;-57
2022/03/12 04:07:01;;;;;;;;;;;25.70;998.40;;;;;;5036701;28;19916;-59
2022/03/12 04:09:27;;;;;;;;;;;25.60;998.40;;;;;;5036735;28;19917;-58
2022/03/12 04:11:53;;;;;;;;;;;25.60;998.40;;;;;;5036683;28;19909;-58
2022/03/12 04:14:18;;;;;;;;;;;0.90;998.40;;;;;;5036613;28;19909;-59
2022/03/12 04:16:44;;;;;;;;;;;0.90;998.40;;;;;;5036692;28;19909;-59
2022/03/12 04:19:11;;;;;;;;;;;25.60;998.40;;;;;;5036645;28;20262;-59
2022/03/12 04:21:36;;;;;;;;;;;0.90;998.40;;;;;;5036324;28;20373;-56
2022/03/12 04:24:02;;;;;;;;;;;25.60;1024.00;;;;;;5036431;28;19909;-60
2022/03/12 04:26:35;;;;;;;;;;;0.90;1024.00;;;;;;5036328;28;19912;-55
2022/03/12 04:29:01;;;;;;;;;;;0.80;1024.00;;;;;;5036348;28;19912;-60
2022/03/12 04:31:26;;;;;;;;;;;0.80;1024.00;;;;;;5036110;28;20355;-60
2022/03/12 04:33:52;;;;;;;;;;;0.70;1049.60;;;;;;5036287;28;19909;-71
2022/03/12 04:36:18;;;;;;;;;;;0.70;1049.60;;;;;;5036146;28;20305;-59
2022/03/12 04:38:43;;;;;;;;;;;0.70;1049.60;;;;;;5036333;28;19909;-57
2022/03/12 04:41:13;;;;;;;;;;;0.70;1049.60;;;;;;5035971;28;19917;-56
2022/03/12 04:43:38;;;;;;;;;;;0.70;1049.60;;;;;;5036133;28;20374;-56
2022/03/12 04:46:04;;;;;;;;;;;0.60;1049.60;;;;;;5036144;28;19917;-56
2022/03/12 04:48:30;;;;;;;;;;;0.70;1049.60;;;;;;5035819;28;19916;-56
2022/03/12 04:50:56;;;;;;;;;;;0.70;1049.60;;;;;;5035680;28;19917;-56
2022/03/12 04:53:22;;;;;;;;;;;0.60;1049.60;;;;;;5035995;28;19909;-59
2022/03/12 04:55:48;;;;;;;;;;;0.70;1049.60;;;;;;5035825;28;19909;-55
2022/03/12 04:58:14;;;;;;;;;;;0.70;1049.60;;;;;;5035456;28;19916;-59
2022/03/12 05:00:41;;;;;;;;;;;0.70;1049.60;;;;;;5035597;28;19917;-57
2022/03/12 05:03:09;;;;;;;;;;;0.70;1049.60;;;;;;5035554;28;19921;-58
2022/03/12 05:05:39;;;;;;;;;;;0.60;1049.60;;;;;;5035548;28;19913;-59
2022/03/12 05:08:09;;;;;;;;;;;0.50;1049.60;;;;;;5035583;28;19920;-57
2022/03/12 05:10:35;;;;;;;;;;;0.50;1049.60;;;;;;5035572;28;19920;-59
2022/03/12 05:13:01;;;;;;;;;;;0.50;1049.60;;;;;;5034930;28;20267;-58
2022/03/12 05:15:32;;;;;;;;;;;0.60;1049.60;;;;;;5035474;28;19935;-58
2022/03/12 05:17:58;;;;;;;;;;;0.50;1075.20;;;;;;5035420;28;20412;-57
2022/03/12 05:20:25;;;;;;;;;;;0.50;1075.20;;;;;;5035402;28;19917;-59
2022/03/12 05:22:51;;;;;;;;;;;0.50;1049.60;;;;;;5035299;28;19909;-59
2022/03/12 05:25:18;;;;;;;;;;;0.50;1075.20;;;;;;5035450;28;19909;-59
2022/03/12 05:27:54;;;;;;;;;;;0.50;1075.20;;;;;;5035159;28;19909;-56
2022/03/12 05:30:22;;;;;;;;;;;0.50;1075.20;;;;;;5035223;28;19913;-60
2022/03/12 05:32:49;;;;;;;;;;;0.50;1075.20;;;;;;5034999;28;19909;-56
2022/03/12 05:35:17;;;;;;;;;;;0.60;1075.20;;;;;;5035168;28;19963;-57
2022/03/12 05:37:44;;;;;;;;;;;0.50;1075.20;;;;;;5034767;28;19919;-60
2022/03/12 05:40:11;;;;;;;;;;;0.60;1075.20;;;;;;5035192;28;19956;-56
2022/03/12 05:42:37;;;;;;;;;;;0.70;1075.20;;;;;;5034987;28;19980;-59
2022/03/12 05:45:09;;;;;;;;;;;0.60;1075.20;;;;;;5035005;28;19913;-57
2022/03/12 05:47:40;;;;;;;;;;;0.60;1075.20;;;;;;5034742;28;19914;-57
2022/03/12 05:50:09;;;;;;;;;;;0.70;1075.20;;;;;;5034703;28;19913;-57
2022/03/12 05:52:38;;;;;;;;;;;0.70;1075.20;;;;;;5034946;28;19913;-59
2022/03/12 05:55:05;;;;;;;;;;;0.70;1075.20;;;;;;5034751;28;19963;-58
2022/03/12 05:57:31;;;;;;;;;;;0.80;1075.20;;;;;;5034546;28;19909;-60
2022/03/12 05:59:58;;;;;;;;;;;0.80;1075.20;;;;;;5034548;28;19939;-60
2022/03/12 06:02:23;;;;;;;;;;;0.80;1100.80;;;;;;5035028;28;20335;-59
2022/03/12 06:04:49;;;;;;;;;;;0.90;1075.20;;;;;;5034898;28;19952;-60
2022/03/12 06:07:15;;;;;;;;;;;0.80;1100.80;;;;;;5034621;28;19913;-56
2022/03/12 06:09:41;;;;;;;;;;;0.90;1075.20;;;;;;5034348;28;20279;-59
2022/03/12 06:12:13;;;;;;;;;;;25.60;1075.20;;;;;;5034412;28;19909;-55
2022/03/12 06:14:40;;;;;;;;;;;25.60;1075.20;;;;;;5034336;28;20402;-56
2022/03/12 06:17:05;;;;;;;;;;;25.60;1075.20;;;;;;5034587;28;19913;-55
2022/03/12 06:19:31;;;;;;;;;;;25.70;1075.20;;;;;;5034252;28;20321;-59
2022/03/12 06:21:57;;;;;;;;;;;25.70;1075.20;;;;;;5034298;28;19909;-60
2022/03/12 06:24:23;;;;;;;;;;;25.80;1075.20;;;;;;5034483;28;19955;-60
2022/03/12 06:26:48;;;;;;;;;;;25.80;1075.20;;;;;;5034142;28;19935;-60
2022/03/12 06:29:15;;;;;;;;;;;25.80;1075.20;;;;;;5033806;28;20259;-59
2022/03/12 06:31:41;;;;;;;;;;;25.90;1049.60;;;;;;5034194;28;19909;-60
2022/03/12 06:34:09;;;;;;;;;;;25.90;1075.20;;;;;;5034014;28;19909;-56
2022/03/12 06:36:37;;;;;;;;;;;25.90;1075.20;;;;;;5034204;28;20397;-55
2022/03/12 06:39:04;;;;;;;;;;;25.90;1075.20;;;;;;5033938;28;20005;-58
2022/03/12 06:41:38;;;;;;;;;;;26.00;1075.20;;;;;;5034004;28;20000;-59
2022/03/12 06:44:03;;;;;;;;;;;26.10;1049.60;;;;;;5033969;28;20004;-58
2022/03/12 06:46:30;;;;;;;;;;;26.10;1049.60;;;;;;5034170;28;19971;-55
2022/03/12 06:48:56;;;;;;;;;;;26.10;1049.60;;;;;;5033906;28;19909;-56
2022/03/12 06:51:22;;;;;;;;;;;26.20;1075.20;;;;;;5034165;28;20050;-55
2022/03/12 06:53:47;;;;;;;;;;;26.20;1075.20;;;;;;5034060;28;19964;-59
2022/03/12 06:56:13;;;;;;;;;;;26.30;1049.60;;;;;;5034434;28;19909;-56
2022/03/12 06:58:38;;;;;;;;;;;26.40;1049.60;;;;;;5034100;28;19963;-56
2022/03/12 07:01:05;;;;;;;;;;;26.50;1049.60;;;;;;5033924;28;19923;-60
2022/03/12 07:03:31;;;;;;;;;;;26.50;1049.60;;;;;;5033631;28;20367;-57
2022/03/12 07:05:57;;;;;;;;;;;51.20;1075.20;;;;;;5033863;28;20004;-58
2022/03/12 07:08:23;;;;;;;;;;;51.30;1075.20;;;;;;5033595;28;20298;-58
2022/03/12 07:10:49;;;;;;;;;;;51.50;1049.60;;;;;;5033734;28;19909;-59
2022/03/12 07:13:15;;;;;;;;;;;51.60;1024.00;;;;;;5033689;28;20075;-59
2022/03/12 07:15:41;;;;;;;;;;;51.70;1024.00;;;;;;5033429;28;19955;-56
2022/03/12 07:18:06;;;;;;;;;;;51.80;1024.00;;;;;;5033254;28;19909;-57
2022/03/12 07:20:32;;;;;;;;;;;52.00;1024.00;;;;;;5032933;28;19924;-55
2022/03/12 07:22:57;;;;;;;;;;;52.10;998.40;;;;;;5035495;28;19909;-58
2022/03/12 07:25:25;;;;;;;;;;;76.90;998.40;;;;;;5036897;28;19910;-56
2022/03/12 07:27:52;;;;;;;;;;;77.00;998.40;;;;;;5037195;28;20361;-57
2022/03/12 07:30:18;;;;;;;;;;;77.20;998.40;;;;;;5036439;28;19909;-58
2022/03/12 07:32:44;;;;;;;;;;;77.30;998.40;;;;;;5036255;28;20370;-57
2022/03/12 07:35:11;;;;;;;;;;;77.50;972.80;;;;;;5035766;28;20368;-59
2022/03/12 07:37:36;;;;;;;;;;;77.60;972.80;;;;;;5035739;28;20017;-57
2022/03/12 07:40:03;;;;;;;;;;;102.40;947.20;;;;;;5036970;28;20011;-57
2022/03/12 07:42:29;;;;;;;;;;;102.50;947.20;;;;;;5035645;28;19961;-56
2022/03/12 07:44:54;;;;;;;;;;;102.80;947.20;;;;;;5035821;28;20378;-61
2022/03/12 07:47:20;;;;;;;;;;;102.90;921.60;;;;;;5034400;28;19909;-59
2022/03/12 07:49:46;;;;;;;;;;;103.10;921.60;;;;;;5036046;28;19944;-60
2022/03/12 07:52:12;;;;;;;;;;;103.20;896.00;;;;;;5037616;28;20314;-60
2022/03/12 07:54:37;;;;;;;;;;;103.30;896.00;;;;;;5037113;28;19909;-58
2022/03/12 07:57:03;;;;;;;;;;;128.10;921.60;;;;;;5037008;28;20300;-60
2022/03/12 07:59:29;;;;;;;;;;;128.20;896.00;;;;;;5036688;28;19952;-59
2022/03/12 08:01:55;;;;;;;;;;;128.40;896.00;;;;;;5036745;28;19921;-60
2022/03/12 08:04:21;;;;;;;;;;;128.50;896.00;;;;;;5036680;28;19999;-60
2022/03/12 08:06:48;;;;;;;;;;;128.60;896.00;;;;;;5036116;28;20370;-63
2022/03/12 08:09:13;;;;;;;;;;;128.80;896.00;;;;;;5036768;28;19909;-60
2022/03/12 08:11:39;;;;;;;;;;;128.90;870.40;;;;;;5036679;28;20063;-58
2022/03/12 08:14:15;;;;;;;;;;;153.70;870.40;;;;;;5036801;28;19909;-57
2022/03/12 08:16:41;;;;;;;;;;;153.80;844.80;;;;;;5036677;28;19909;-60
2022/03/12 08:19:08;;;;;;;;;;;154.00;844.80;;;;;;5036378;28;19992;-60
2022/03/12 08:21:34;;;;;;;;;;;154.30;921.60;;;;;;5036446;28;19924;-57
2022/03/12 08:24:02;;;;;;;;;;;154.40;896.00;;;;;;5036307;28;19909;-58
2022/03/12 08:26:28;;;;;;;;;;;179.20;947.20;;;;;;5036085;28;19913;-60
2022/03/12 08:28:53;;;;;;;;;;;179.30;844.80;;;;;;5036567;28;19932;-59
2022/03/12 08:31:19;;;;;;;;;;;179.40;819.20;;;;;;5035027;28;20347;-60
2022/03/12 08:33:45;;;;;;;;;;;179.50;819.20;;;;;;5035436;28;19916;-59
2022/03/12 08:36:10;;;;;;;;;;;179.60;768.00;;;;;;5036491;28;19909;-60
2022/03/12 08:38:36;;;;;;;;;;;179.70;793.60;;;;;;5036163;28;19963;-58
2022/03/12 08:41:06;;;;;;;;;;;179.80;768.00;;;;;;5035927;28;19924;-59
2022/03/12 08:43:32;;;;;;;;;;;179.80;768.00;;;;;;5036140;28;19916;-59
2022/03/12 08:45:58;;;;;;;;;;;179.90;768.00;;;;;;5035888;28;19910;-59
2022/03/12 08:48:23;;;;;;;;;;;180.00;742.40;;;;;;5036086;28;19910;-59
2022/03/12 08:50:49;;;;;;;;;;;180.00;768.00;;;;;;5036035;28;19909;-60
2022/03/12 08:53:18;;;;;;;;;;;180.10;742.40;;;;;;5036246;28;19913;-59
2022/03/12 08:55:43;;;;;;;;;;;180.10;742.40;;;;;;5035970;28;20378;-60
2022/03/12 08:58:09;;;;;;;;;;;204.80;742.40;;;;;;5035884;28;19909;-59
2022/03/12 09:00:36;;;;;;;;;;;204.80;716.80;;;;;;5035585;28;19995;-60
2022/03/12 09:03:02;;;;;;;;;;;204.90;716.80;;;;;;5035653;28;19921;-60
2022/03/12 09:05:27;;;;;;;;;;;204.90;716.80;;;;;;5035738;28;19909;-59
2022/03/12 09:07:53;;;;;;;;;;;205.00;691.20;;;;;;5035613;28;19956;-59
2022/03/12 09:10:20;;;;;;;;;;;205.00;716.80;;;;;;5035485;28;19963;-59
2022/03/12 09:12:45;;;;;;;;;;;205.10;691.20;;;;;;5035673;28;19996;-60
2022/03/12 09:15:11;;;;;;;;;;;205.10;665.60;;;;;;5035683;28;20315;-60
2022/03/12 09:17:37;;;;;;;;;;;205.10;691.20;;;;;;5035607;28;19916;-60
2022/03/12 09:20:07;;;;;;;;;;;205.20;665.60;;;;;;5035321;28;20274;-59
2022/03/12 09:22:32;;;;;;;;;;;205.30;665.60;;;;;;5035482;28;19909;-60
2022/03/12 09:24:58;;;;;;;;;;;205.30;665.60;;;;;;5035385;28;20355;-59
2022/03/12 09:27:23;;;;;;;;;;;205.30;640.00;;;;;;5035246;28;20478;-60
2022/03/12 09:29:50;;;;;;;;;;;205.40;665.60;;;;;;5035325;28;19909;-60
2022/03/12 09:32:16;;;;;;;;;;;205.50;665.60;;;;;;5035064;28;19967;-60
2022/03/12 09:34:42;;;;;;;;;;;205.50;665.60;;;;;;5035052;28;19909;-60
2022/03/12 09:37:09;;;;;;;;;;;205.60;640.00;;;;;;5035707;28;19909;-60
2022/03/12 09:39:34;;;;;;;;;;;205.60;640.00;;;;;;5035035;28;19955;-59
2022/03/12 09:42:00;;;;;;;;;;;205.70;640.00;;;;;;5034932;28;19921;-60
2022/03/12 09:44:26;;;;;;;;;;;230.40;640.00;;;;;;5034961;28;19916;-60
2022/03/12 09:46:51;;;;;;;;;;;230.40;640.00;;;;;;5034995;28;19909;-60
2022/03/12 09:49:17;;;;;;;;;;;230.40;640.00;;;;;;5034896;28;20337;-59
2022/03/12 09:51:43;;;;;;;;;;;230.40;640.00;;;;;;5034817;28;19960;-60
2022/03/12 09:54:09;;;;;;;;;;;230.50;640.00;;;;;;5034870;28;19909;-60
2022/03/12 09:56:35;;;;;;;;;;;230.50;614.40;;;;;;5034860;28;19913;-58
2022/03/12 09:59:00;;;;;;;;;;;230.50;588.80;;;;;;5034540;28;19931;-59
2022/03/12 10:01:26;;;;;;;;;;;230.50;588.80;;;;;;5034720;28;19917;-59
2022/03/12 10:03:52;;;;;;;;;;;230.50;614.40;;;;;;5034348;28;20332;-60
2022/03/12 10:06:17;;;;;;;;;;;230.50;614.40;;;;;;5034570;28;19916;-60
2022/03/12 10:08:43;;;;;;;;;;;230.50;614.40;;;;;;5035248;28;20323;-58
2022/03/12 10:11:09;;;;;;;;;;;230.50;614.40;;;;;;5034311;28;19932;-60
2022/03/12 10:13:35;;;;;;;;;;;230.60;614.40;;;;;;5034516;28;19914;-59
2022/03/12 10:16:01;;;;;;;;;;;230.70;588.80;;;;;;5034046;28;19916;-60
2022/03/12 10:18:27;;;;;;;;;;;230.70;588.80;;;;;;5034446;28;19914;-59
2022/03/12 10:20:53;;;;;;;;;;;230.80;614.40;;;;;;5033912;28;19978;-59
2022/03/12 10:23:19;;;;;;;;;;;230.80;588.80;;;;;;5034426;28;19913;-60
2022/03/12 10:25:45;;;;;;;;;;;230.80;588.80;;;;;;5032639;28;19992;-60
2022/03/12 10:28:12;;;;;;;;;;;230.80;588.80;;;;;;5034357;28;19909;-60
2022/03/12 10:30:38;;;;;;;;;;;230.80;588.80;;;;;;5034310;28;19909;-58
2022/03/12 10:33:04;;;;;;;;;;;230.90;563.20;;;;;;5034297;28;19909;-60
2022/03/12 10:35:34;;;;;;;;;;;230.90;588.80;;;;;;5033753;28;20347;-60
2022/03/12 10:38:00;;;;;;;;;;;230.90;588.80;;;;;;5034181;28;19913;-57
2022/03/12 10:40:26;;;;;;;;;;;230.90;563.20;;;;;;5034174;28;19921;-59
2022/03/12 10:42:52;;;;;;;;;;;231.00;588.80;;;;;;5034178;28;20405;-60
2022/03/12 10:45:19;;;;;;;;;;;231.00;563.20;;;;;;5034140;28;19917;-59
2022/03/12 10:47:46;;;;;;;;;;;231.00;563.20;;;;;;5033992;28;20003;-59
2022/03/12 10:50:20;;;;;;;;;;;231.00;563.20;;;;;;5034163;28;19931;-60
2022/03/12 10:52:48;;;;;;;;;;;231.00;563.20;;;;;;5034204;28;20290;-60
2022/03/12 10:55:17;;;;;;;;;;;230.90;563.20;;;;;;5033924;28;20000;-60
2022/03/12 10:58:10;;;;;;;;;;;231.00;563.20;;;;;;5036398;28;19936;-59
2022/03/12 11:00:37;;;;;;;;;;;231.00;563.20;;;;;;5035196;28;19921;-60
2022/03/12 11:03:04;;;;;;;;;;;231.10;563.20;;;;;;5037999;28;20310;-59
2022/03/12 11:05:33;;;;;;;;;;;231.10;563.20;;;;;;5037916;28;19910;-59
2022/03/12 11:08:25;;;;;;;;;;;231.30;563.20;;;;;;5038040;28;19909;-59
2022/03/12 11:10:52;;;;;;;;;;;231.30;563.20;;;;;;5034821;28;19909;-60
2022/03/12 11:13:35;;;;;;;;;;;231.20;537.60;;;;;;5037589;28;19932;-58
2022/03/12 11:16:05;;;;;;;;;;;231.30;563.20;;;;;;5037793;28;19909;-59
2022/03/12 11:18:32;;;;;;;;;;;231.30;537.60;;;;;;5037628;28;19996;-60
2022/03/12 11:20:58;;;;;;;;;;;231.30;537.60;;;;;;5037790;28;19917;-57
2022/03/12 11:23:27;;;;;;;;;;;256.00;563.20;;;;;;5038110;28;19909;-59
2022/03/12 11:25:56;;;;;;;;;;;256.00;563.20;;;;;;5037566;28;20373;-60
2022/03/12 11:28:22;;;;;;;;;;;256.00;563.20;;;;;;5037628;28;19981;-60
2022/03/12 11:30:48;;;;;;;;;;;256.00;563.20;;;;;;5037479;28;19909;-60
2022/03/12 11:33:14;;;;;;;;;;;256.00;563.20;;;;;;5037469;28;19963;-60
2022/03/12 11:35:45;;;;;;;;;;;256.20;563.20;;;;;;5035969;28;20333;-60
2022/03/12 11:38:15;;;;;;;;;;;256.30;563.20;;;;;;5037513;28;19915;-59
2022/03/12 11:40:50;;;;;;;;;;;256.30;563.20;;;;;;5037403;28;20271;-60
2022/03/12 11:43:27;;;;;;;;;;;256.20;563.20;;;;;;5037324;28;20337;-61
2022/03/12 11:45:55;;;;;;;;;;;256.30;588.80;;;;;;5037279;28;19909;-60
2022/03/12 11:48:22;;;;;;;;;;;256.40;614.40;;;;;;5037323;28;19979;-60
2022/03/12 11:50:47;;;;;;;;;;;256.60;563.20;;;;;;5037155;28;19911;-60
2022/03/12 11:53:15;;;;;;;;;;;256.60;537.60;;;;;;5037064;28;19909;-58
2022/03/12 11:55:40;;;;;;;;;;;256.60;537.60;;;;;;5037188;28;19933;-66
2022/03/12 11:58:07;;;;;;;;;;;256.60;537.60;;;;;;5037041;28;19924;-60
2022/03/12 12:00:33;;;;;;;;;;;256.50;563.20;;;;;;5035427;28;20442;-58
2022/03/12 12:02:59;;;;;;;;;;;256.60;563.20;;;;;;5035060;28;19975;-58
2022/03/12 12:05:29;;;;;;;;;;;256.70;563.20;;;;;;5035379;28;19948;-59
2022/03/12 12:07:55;;;;;;;;;;;256.70;563.20;;;;;;5034501;28;19921;-60
2022/03/12 12:10:25;;;;;;;;;;;256.80;563.20;;;;;;5035990;28;19909;-59
2022/03/12 12:12:51;;;;;;;;;;;256.80;537.60;;;;;;5036345;28;20004;-60
2022/03/12 12:15:19;;;;;;;;;;;256.80;537.60;;;;;;5034945;28;19952;-57
2022/03/12 12:17:46;;;;;;;;;;;256.90;537.60;;;;;;5035297;28;19917;-57
2022/03/12 12:20:13;;;;;;;;;;;256.90;537.60;;;;;;5034813;28;19913;-59
2022/03/12 12:22:39;;;;;;;;;;;256.90;512.00;;;;;;5034882;28;19917;-58
2022/03/12 12:25:05;;;;;;;;;;;281.60;537.60;;;;;;5035502;28;19917;-59
2022/03/12 12:27:44;;;;;;;;;;;281.70;537.60;;;;;;5036076;28;20288;-58
2022/03/12 12:30:15;;;;;;;;;;;281.70;537.60;;;;;;5035734;28;19916;-57
2022/03/12 12:33:01;;;;;;;;;;;281.70;537.60;;;;;;5035866;28;19915;-68
2022/03/12 12:35:30;;;;;;;;;;;281.80;537.60;;;;;;5035020;28;19924;-58
2022/03/12 12:37:57;;;;;;;;;;;281.80;537.60;;;;;;5035686;28;19913;-59
2022/03/12 12:40:23;;;;;;;;;;;281.80;537.60;;;;;;5035450;28;19917;-59
2022/03/12 12:42:49;;;;;;;;;;;281.80;537.60;;;;;;5035011;28;19924;-57
2022/03/12 12:45:16;;;;;;;;;;;281.80;537.60;;;;;;5032854;28;19916;-58
2022/03/12 12:47:42;;;;;;;;;;;281.80;537.60;;;;;;5035502;28;19909;-59
2022/03/12 12:50:19;;;;;;;;;;;281.80;537.60;;;;;;5035149;28;19948;-57
2022/03/12 12:53:03;;;;;;;;;;;281.80;512.00;;;;;;5033924;28;19913;-57
2022/03/12 12:55:31;;;;;;;;;;;281.80;537.60;;;;;;5033619;28;19917;-57
2022/03/12 12:57:57;;;;;;;;;;;281.80;537.60;;;;;;5034999;28;19996;-58
2022/03/12 13:00:32;;;;;;;;;;;281.80;537.60;;;;;;5034541;28;20004;-57
2022/03/12 13:02:59;;;;;;;;;;;281.80;563.20;;;;;;5034978;28;19928;-57
2022/03/12 13:05:43;;;;;;;;;;;281.80;563.20;;;;;;5034666;28;19914;-57
2022/03/12 13:08:09;;;;;;;;;;;281.80;588.80;;;;;;5035304;28;19936;-55
2022/03/12 13:10:34;;;;;;;;;;;281.80;563.20;;;;;;5035130;28;20355;-57
2022/03/12 13:13:08;;;;;;;;;;;281.80;588.80;;;;;;5035170;28;19909;-57
2022/03/12 13:15:38;;;;;;;;;;;281.90;588.80;;;;;;5034616;28;19913;-56
2022/03/12 13:18:18;;;;;;;;;;;282.00;563.20;;;;;;5032731;28;19963;-57
2022/03/12 13:20:44;;;;;;;;;;;282.00;563.20;;;;;;5032130;28;19921;-57
2022/03/12 13:23:10;;;;;;;;;;;282.10;563.20;;;;;;5034789;28;19913;-56
2022/03/12 13:26:06;;;;;;;;;;;282.10;563.20;;;;;;5034705;28;20381;-58
2022/03/12 13:28:47;;;;;;;;;;;282.10;563.20;;;;;;4993521;28;19997;-59
2022/03/12 13:31:17;;;;;;;;;;;282.10;588.80;;;;;;4993798;28;20338;-57
2022/03/12 13:33:47;;;;;;;;;;;282.00;563.20;;;;;;4993725;28;19917;-57
2022/03/12 13:36:18;;;;;;;;;;;282.00;563.20;;;;;;4993752;28;19909;-56
2022/03/12 13:38:44;;;;;;;;;;;282.00;563.20;;;;;;4993760;28;19933;-57
2022/03/12 13:41:13;;;;;;;;;;;281.90;588.80;;;;;;4993588;28;20429;-59
2022/03/12 13:43:40;;;;;;;;;;;282.00;588.80;;;;;;4993657;28;19909;-59
2022/03/12 13:46:05;;;;;;;;;;;282.00;588.80;;;;;;4993491;28;19914;-57
2022/03/12 13:48:31;;;;;;;;;;;282.10;588.80;;;;;;4993433;28;19910;-59
2022/03/12 13:50:57;;;;;;;;;;;282.10;563.20;;;;;;4993728;28;19910;-57
2022/03/12 13:53:29;;;;;;;;;;;282.10;563.20;;;;;;4993411;28;19910;-57
2022/03/12 13:56:21;;;;;;;;;;;282.10;563.20;;;;;;4993325;28;20272;-58
2022/03/12 13:58:46;;;;;;;;;;;282.20;563.20;;;;;;4991541;28;19917;-57
2022/03/12 14:01:49;;;;;;;;;;;282.20;588.80;;;;;;4993195;28;20303;-57